sensor_id;sensor_type;location;lat;lon;timestamp;pressure;altitude;pressure_sealevel;temperature;humidity
15870;BME280;8034;51.442;-0.522;2022-08-05T00:03:39;101837.03;;;18.45;100.00
15870;BME280;8034;51.442;-0.522;2022-08-05T00:09:25;101832.93;;;18.54;100.00
15870;BME280;8034;51.442;-0.522;2022-08-05T00:15:10;101849.25;;;18.13;100.00
15870;BME280;8034;51.442;-0.522;2022-08-05T00:20:55;101856.35;;;18.36;100.00
15870;BME280;8034;51.442;-0.522;2022-08-05T00:26:46;101860.34;;;18.35;100.00
15870;BME280;8034;51.442;-0.522;2022-08-05T00:32:31;101862.48;;;18.27;100.00
15870;BME280;8034;51.442;-0.522;2022-08-05T00:38:16;101880.77;;;18.27;100.00
15870;BME280;8034;51.442;-0.522;2022-08-05T00:44:03;101892.52;;;18.29;100.00
15870;BME280;8034;51.442;-0.522;2022-08-05T00:49:48;101880.87;;;18.35;100.00
15870;BME280;8034;51.442;-0.522;2022-08-05T00:55:33;101888.39;;;18.24;100.00
15870;BME280;8034;51.442;-0.522;2022-08-05T01:01:20;101895.53;;;18.05;100.00
15870;BME280;8034;51.442;-0.522;2022-08-05T01:07:05;101894.21;;;18.00;100.00
15870;BME280;8034;51.442;-0.522;2022-08-05T01:12:52;101884.73;;;17.96;100.00
15870;BME280;8034;51.442;-0.522;2022-08-05T01:15:27;101885.80;;;17.84;100.00
15870;BME280;8034;51.442;-0.522;2022-08-05T01:21:20;101881.22;;;17.71;100.00
15870;BME280;8034;51.442;-0.522;2022-08-05T01:27:28;101880.72;;;17.51;100.00
15870;BME280;8034;51.442;-0.522;2022-08-05T01:33:02;101885.69;;;17.56;100.00
15870;BME280;8034;51.442;-0.522;2022-08-05T01:38:50;101889.33;;;17.41;100.00
15870;BME280;8034;51.442;-0.522;2022-08-05T01:44:37;101886.25;;;17.56;100.00
15870;BME280;8034;51.442;-0.522;2022-08-05T01:50:30;101892.39;;;17.60;100.00
15870;BME280;8034;51.442;-0.522;2022-08-05T01:56:18;101896.60;;;17.60;100.00
15870;BME280;8034;51.442;-0.522;2022-08-05T02:02:06;101908.08;;;17.45;100.00
15870;BME280;8034;51.442;-0.522;2022-08-05T02:07:54;101915.83;;;17.51;100.00
15870;BME280;8034;51.442;-0.522;2022-08-05T02:13:45;101909.23;;;17.42;100.00
15870;BME280;8034;51.442;-0.522;2022-08-05T02:16:19;101905.21;;;17.48;100.00
15870;BME280;8034;51.442;-0.522;2022-08-05T02:18:53;101913.30;;;17.52;100.00
15870;BME280;8034;51.442;-0.522;2022-08-05T02:24:44;101909.00;;;17.57;100.00
15870;BME280;8034;51.442;-0.522;2022-08-05T02:30:34;101902.41;;;17.48;100.00
15870;BME280;8034;51.442;-0.522;2022-08-05T02:36:21;101901.21;;;17.35;100.00
15870;BME280;8034;51.442;-0.522;2022-08-05T02:42:08;101914.83;;;17.25;100.00
15870;BME280;8034;51.442;-0.522;2022-08-05T02:47:56;101910.69;;;17.20;100.00
15870;BME280;8034;51.442;-0.522;2022-08-05T02:53:42;101907.36;;;17.00;100.00
15870;BME280;8034;51.442;-0.522;2022-08-05T02:59:29;101915.17;;;16.84;100.00
15870;BME280;8034;51.442;-0.522;2022-08-05T03:05:16;101920.56;;;16.78;100.00
15870;BME280;8034;51.442;-0.522;2022-08-05T03:11:02;101927.56;;;16.80;100.00
15870;BME280;8034;51.442;-0.522;2022-08-05T03:16:47;101925.25;;;17.06;100.00
15870;BME280;8034;51.442;-0.522;2022-08-05T03:22:31;101930.77;;;16.93;100.00
15870;BME280;8034;51.442;-0.522;2022-08-05T03:28:17;101930.38;;;16.99;100.00
15870;BME280;8034;51.442;-0.522;2022-08-05T03:34:04;101932.37;;;17.17;100.00
15870;BME280;8034;51.442;-0.522;2022-08-05T03:40:00;101945.80;;;17.02;100.00
15870;BME280;8034;51.442;-0.522;2022-08-05T03:45:47;101952.16;;;17.07;100.00
15870;BME280;8034;51.442;-0.522;2022-08-05T03:51:37;101957.93;;;16.97;100.00
15870;BME280;8034;51.442;-0.522;2022-08-05T03:57:26;101964.67;;;16.96;100.00
15870;BME280;8034;51.442;-0.522;2022-08-05T04:03:15;101973.98;;;16.94;100.00
15870;BME280;8034;51.442;-0.522;2022-08-05T04:09:02;101966.58;;;16.79;100.00
15870;BME280;8034;51.442;-0.522;2022-08-05T04:14:49;101979.81;;;16.76;100.00
15870;BME280;8034;51.442;-0.522;2022-08-05T04:20:34;101970.45;;;16.83;100.00
15870;BME280;8034;51.442;-0.522;2022-08-05T04:26:20;101982.53;;;16.81;100.00
15870;BME280;8034;51.442;-0.522;2022-08-05T04:32:06;101986.09;;;16.68;100.00
15870;BME280;8034;51.442;-0.522;2022-08-05T04:37:51;101988.58;;;16.70;100.00
15870;BME280;8034;51.442;-0.522;2022-08-05T04:43:36;102004.34;;;16.66;100.00
15870;BME280;8034;51.442;-0.522;2022-08-05T04:49:21;102006.58;;;16.66;100.00
15870;BME280;8034;51.442;-0.522;2022-08-05T04:55:07;102015.09;;;16.59;100.00
15870;BME280;8034;51.442;-0.522;2022-08-05T05:00:52;102015.38;;;16.57;100.00
15870;BME280;8034;51.442;-0.522;2022-08-05T05:06:37;102025.86;;;16.44;100.00
15870;BME280;8034;51.442;-0.522;2022-08-05T05:12:23;102032.07;;;16.41;100.00
15870;BME280;8034;51.442;-0.522;2022-08-05T05:18:08;102034.36;;;16.36;100.00
15870;BME280;8034;51.442;-0.522;2022-08-05T05:23:56;102039.73;;;16.33;100.00
15870;BME280;8034;51.442;-0.522;2022-08-05T05:29:41;102041.53;;;16.19;100.00
15870;BME280;8034;51.442;-0.522;2022-08-05T05:35:26;102045.77;;;16.16;100.00
15870;BME280;8034;51.442;-0.522;2022-08-05T05:41:13;102053.03;;;16.17;100.00
15870;BME280;8034;51.442;-0.522;2022-08-05T05:46:57;102058.14;;;16.10;100.00
15870;BME280;8034;51.442;-0.522;2022-08-05T05:52:43;102064.41;;;16.00;100.00
15870;BME280;8034;51.442;-0.522;2022-08-05T05:58:28;102077.59;;;15.97;100.00
15870;BME280;8034;51.442;-0.522;2022-08-05T06:04:12;102084.69;;;15.86;100.00
15870;BME280;8034;51.442;-0.522;2022-08-05T06:09:58;102087.70;;;15.95;100.00
15870;BME280;8034;51.442;-0.522;2022-08-05T06:15:43;102099.73;;;15.98;100.00
15870;BME280;8034;51.442;-0.522;2022-08-05T06:21:27;102104.77;;;15.99;100.00
15870;BME280;8034;51.442;-0.522;2022-08-05T06:27:14;102113.46;;;16.00;100.00
15870;BME280;8034;51.442;-0.522;2022-08-05T06:33:00;102117.05;;;16.05;100.00
15870;BME280;8034;51.442;-0.522;2022-08-05T06:38:45;102121.47;;;16.14;100.00
15870;BME280;8034;51.442;-0.522;2022-08-05T06:44:32;102125.06;;;16.58;100.00
15870;BME280;8034;51.442;-0.522;2022-08-05T06:50:20;102129.53;;;16.25;100.00
15870;BME280;8034;51.442;-0.522;2022-08-05T06:56:06;102131.28;;;16.14;100.00
15870;BME280;8034;51.442;-0.522;2022-08-05T07:01:52;102146.25;;;16.38;100.00
15870;BME280;8034;51.442;-0.522;2022-08-05T07:07:37;102148.53;;;16.31;100.00
15870;BME280;8034;51.442;-0.522;2022-08-05T07:13:24;102148.11;;;16.48;100.00
15870;BME280;8034;51.442;-0.522;2022-08-05T07:19:27;102148.95;;;16.48;100.00
15870;BME280;8034;51.442;-0.522;2022-08-05T07:25:12;102144.58;;;16.71;100.00
15870;BME280;8034;51.442;-0.522;2022-08-05T07:30:57;102156.28;;;16.80;100.00
15870;BME280;8034;51.442;-0.522;2022-08-05T07:36:42;102165.16;;;17.16;100.00
15870;BME280;8034;51.442;-0.522;2022-08-05T07:42:27;102163.83;;;17.35;100.00
15870;BME280;8034;51.442;-0.522;2022-08-05T07:48:12;102167.27;;;17.53;100.00
15870;BME280;8034;51.442;-0.522;2022-08-05T07:53:57;102173.00;;;18.09;100.00
15870;BME280;8034;51.442;-0.522;2022-08-05T07:59:41;102168.13;;;18.50;100.00
15870;BME280;8034;51.442;-0.522;2022-08-05T08:05:27;102175.84;;;19.80;100.00
15870;BME280;8034;51.442;-0.522;2022-08-05T08:11:12;102170.77;;;19.79;100.00
15870;BME280;8034;51.442;-0.522;2022-08-05T08:16:58;102180.68;;;20.73;100.00
15870;BME280;8034;51.442;-0.522;2022-08-05T08:22:48;102190.11;;;20.69;100.00
15870;BME280;8034;51.442;-0.522;2022-08-05T08:28:30;102181.72;;;21.30;100.00
15870;BME280;8034;51.442;-0.522;2022-08-05T08:34:15;102183.75;;;21.39;100.00
15870;BME280;8034;51.442;-0.522;2022-08-05T08:40:06;102184.16;;;21.23;100.00
15870;BME280;8034;51.442;-0.522;2022-08-05T08:45:53;102191.32;;;21.60;100.00
15870;BME280;8034;51.442;-0.522;2022-08-05T08:51:41;102186.55;;;21.58;100.00
15870;BME280;8034;51.442;-0.522;2022-08-05T08:57:26;102199.60;;;21.76;100.00
15870;BME280;8034;51.442;-0.522;2022-08-05T09:03:13;102193.16;;;21.25;100.00
15870;BME280;8034;51.442;-0.522;2022-08-05T09:09:00;102195.20;;;21.33;100.00
15870;BME280;8034;51.442;-0.522;2022-08-05T09:14:47;102203.29;;;21.86;100.00
15870;BME280;8034;51.442;-0.522;2022-08-05T09:20:33;102198.95;;;21.88;100.00
15870;BME280;8034;51.442;-0.522;2022-08-05T09:26:23;102202.17;;;22.04;100.00
15870;BME280;8034;51.442;-0.522;2022-08-05T09:32:09;102211.86;;;21.92;100.00
15870;BME280;8034;51.442;-0.522;2022-08-05T09:38:06;102211.02;;;22.02;100.00
15870;BME280;8034;51.442;-0.522;2022-08-05T09:43:52;102217.58;;;21.80;100.00
15870;BME280;8034;51.442;-0.522;2022-08-05T09:49:43;102202.12;;;22.06;100.00
15870;BME280;8034;51.442;-0.522;2022-08-05T09:55:36;102206.80;;;22.19;100.00
15870;BME280;8034;51.442;-0.522;2022-08-05T10:01:25;102207.86;;;22.21;100.00
15870;BME280;8034;51.442;-0.522;2022-08-05T10:07:11;102207.38;;;22.19;100.00
15870;BME280;8034;51.442;-0.522;2022-08-05T10:13:07;102205.02;;;22.12;100.00
15870;BME280;8034;51.442;-0.522;2022-08-05T10:18:54;102210.77;;;22.10;100.00
15870;BME280;8034;51.442;-0.522;2022-08-05T10:24:40;102203.73;;;22.44;100.00
15870;BME280;8034;51.442;-0.522;2022-08-05T10:30:25;102202.30;;;22.27;100.00
15870;BME280;8034;51.442;-0.522;2022-08-05T10:36:11;102209.47;;;22.16;100.00
15870;BME280;8034;51.442;-0.522;2022-08-05T10:42:02;102209.47;;;22.16;100.00
15870;BME280;8034;51.442;-0.522;2022-08-05T10:47:47;102205.63;;;22.12;100.00
15870;BME280;8034;51.442;-0.522;2022-08-05T10:53:41;102213.19;;;22.14;100.00
15870;BME280;8034;51.442;-0.522;2022-08-05T10:59:30;102224.80;;;22.41;100.00
15870;BME280;8034;51.442;-0.522;2022-08-05T11:05:22;102223.14;;;22.48;100.00
15870;BME280;8034;51.442;-0.522;2022-08-05T11:15:05;102221.81;;;22.54;100.00
15870;BME280;8034;51.442;-0.522;2022-08-05T11:20:51;102237.14;;;22.62;100.00
15870;BME280;8034;51.442;-0.522;2022-08-05T11:33:27;102235.98;;;22.63;100.00
15870;BME280;8034;51.442;-0.522;2022-08-05T11:39:33;102254.07;;;22.73;100.00
15870;BME280;8034;51.442;-0.522;2022-08-05T11:45:08;102258.22;;;22.13;100.00
15870;BME280;8034;51.442;-0.522;2022-08-05T11:50:52;102243.53;;;22.39;100.00
15870;BME280;8034;51.442;-0.522;2022-08-05T11:56:46;102245.47;;;22.58;100.00
15870;BME280;8034;51.442;-0.522;2022-08-05T11:59:19;102249.72;;;22.50;100.00
15870;BME280;8034;51.442;-0.522;2022-08-05T12:05:12;102233.08;;;22.83;100.00
15870;BME280;8034;51.442;-0.522;2022-08-05T12:11:01;102251.33;;;22.88;100.00
15870;BME280;8034;51.442;-0.522;2022-08-05T12:16:48;102245.97;;;22.95;100.00
15870;BME280;8034;51.442;-0.522;2022-08-05T12:22:33;102241.56;;;22.91;100.00
15870;BME280;8034;51.442;-0.522;2022-08-05T12:28:36;102258.56;;;22.91;100.00
15870;BME280;8034;51.442;-0.522;2022-08-05T12:34:24;102261.24;;;22.88;100.00
15870;BME280;8034;51.442;-0.522;2022-08-05T12:40:12;102265.55;;;22.94;100.00
15870;BME280;8034;51.442;-0.522;2022-08-05T12:45:57;102261.72;;;22.98;100.00
15870;BME280;8034;51.442;-0.522;2022-08-05T12:51:46;102268.64;;;23.03;100.00
15870;BME280;8034;51.442;-0.522;2022-08-05T12:57:37;102270.16;;;23.01;100.00
15870;BME280;8034;51.442;-0.522;2022-08-05T13:03:37;102276.67;;;23.33;100.00
15870;BME280;8034;51.442;-0.522;2022-08-05T13:09:23;102284.31;;;23.09;100.00
15870;BME280;8034;51.442;-0.522;2022-08-05T13:15:15;102274.89;;;22.94;100.00
15870;BME280;8034;51.442;-0.522;2022-08-05T13:21:09;102283.97;;;23.02;100.00
15870;BME280;8034;51.442;-0.522;2022-08-05T13:26:55;102293.72;;;23.07;100.00
15870;BME280;8034;51.442;-0.522;2022-08-05T13:32:43;102295.40;;;23.08;100.00
15870;BME280;8034;51.442;-0.522;2022-08-05T13:38:31;102302.97;;;23.02;100.00
15870;BME280;8034;51.442;-0.522;2022-08-05T13:44:16;102303.80;;;23.11;100.00
15870;BME280;8034;51.442;-0.522;2022-08-05T13:50:12;102296.14;;;23.11;100.00
15870;BME280;8034;51.442;-0.522;2022-08-05T13:55:52;102293.55;;;23.21;100.00
15870;BME280;8034;51.442;-0.522;2022-08-05T14:01:37;102304.31;;;23.13;100.00
15870;BME280;8034;51.442;-0.522;2022-08-05T14:07:24;102307.16;;;23.13;100.00
15870;BME280;8034;51.442;-0.522;2022-08-05T14:13:10;102311.81;;;23.18;100.00
15870;BME280;8034;51.442;-0.522;2022-08-05T14:18:55;102315.91;;;23.14;100.00
15870;BME280;8034;51.442;-0.522;2022-08-05T14:24:41;102306.81;;;23.23;100.00
15870;BME280;8034;51.442;-0.522;2022-08-05T14:30:26;102311.89;;;23.15;100.00
15870;BME280;8034;51.442;-0.522;2022-08-05T14:36:12;102313.83;;;23.08;100.00
15870;BME280;8034;51.442;-0.522;2022-08-05T14:41:58;102308.25;;;23.06;100.00
15870;BME280;8034;51.442;-0.522;2022-08-05T14:47:43;102310.47;;;23.15;100.00
15870;BME280;8034;51.442;-0.522;2022-08-05T14:53:29;102321.02;;;22.97;100.00
15870;BME280;8034;51.442;-0.522;2022-08-05T14:59:15;102320.66;;;22.90;100.00
15870;BME280;8034;51.442;-0.522;2022-08-05T15:05:01;102315.83;;;22.91;100.00
15870;BME280;8034;51.442;-0.522;2022-08-05T15:10:46;102302.33;;;23.05;99.70
15870;BME280;8034;51.442;-0.522;2022-08-05T15:16:32;102311.25;;;23.09;100.00
15870;BME280;8034;51.442;-0.522;2022-08-05T15:22:17;102307.89;;;23.16;100.00
15870;BME280;8034;51.442;-0.522;2022-08-05T15:28:04;102303.57;;;23.19;97.54
15870;BME280;8034;51.442;-0.522;2022-08-05T15:33:50;102304.45;;;23.34;94.66
15870;BME280;8034;51.442;-0.522;2022-08-05T15:39:35;102303.05;;;23.25;99.66
15870;BME280;8034;51.442;-0.522;2022-08-05T15:45:22;102321.19;;;22.64;100.00
15870;BME280;8034;51.442;-0.522;2022-08-05T15:51:07;102322.34;;;22.46;100.00
15870;BME280;8034;51.442;-0.522;2022-08-05T15:56:52;102313.91;;;23.14;100.00
15870;BME280;8034;51.442;-0.522;2022-08-05T16:02:38;102305.03;;;23.33;96.36
15870;BME280;8034;51.442;-0.522;2022-08-05T16:08:24;102305.59;;;23.41;100.00
15870;BME280;8034;51.442;-0.522;2022-08-05T16:14:13;102305.86;;;23.51;100.00
15870;BME280;8034;51.442;-0.522;2022-08-05T16:20:06;102310.54;;;23.47;100.00
15870;BME280;8034;51.442;-0.522;2022-08-05T16:26:05;102308.78;;;23.40;100.00
15870;BME280;8034;51.442;-0.522;2022-08-05T16:31:54;102307.37;;;23.40;96.39
15870;BME280;8034;51.442;-0.522;2022-08-05T16:37:40;102298.94;;;23.46;98.96
15870;BME280;8034;51.442;-0.522;2022-08-05T16:43:29;102301.34;;;23.41;94.18
15870;BME280;8034;51.442;-0.522;2022-08-05T16:49:15;102294.03;;;23.49;97.06
15870;BME280;8034;51.442;-0.522;2022-08-05T16:55:01;102295.75;;;23.56;90.49
15870;BME280;8034;51.442;-0.522;2022-08-05T17:00:47;102295.00;;;23.62;100.00
15870;BME280;8034;51.442;-0.522;2022-08-05T17:06:33;102302.52;;;23.57;100.00
15870;BME280;8034;51.442;-0.522;2022-08-05T17:12:20;102300.34;;;23.54;100.00
15870;BME280;8034;51.442;-0.522;2022-08-05T17:18:05;102304.95;;;23.53;96.75
15870;BME280;8034;51.442;-0.522;2022-08-05T17:23:50;102300.70;;;23.53;95.84
15870;BME280;8034;51.442;-0.522;2022-08-05T17:29:35;102304.34;;;23.53;100.00
15870;BME280;8034;51.442;-0.522;2022-08-05T17:35:21;102313.45;;;23.53;100.00
15870;BME280;8034;51.442;-0.522;2022-08-05T17:41:06;102304.28;;;23.47;100.00
15870;BME280;8034;51.442;-0.522;2022-08-05T17:46:53;102306.27;;;23.55;100.00
15870;BME280;8034;51.442;-0.522;2022-08-05T17:52:39;102320.23;;;23.03;100.00
15870;BME280;8034;51.442;-0.522;2022-08-05T17:58:24;102319.23;;;22.73;100.00
15870;BME280;8034;51.442;-0.522;2022-08-05T18:04:09;102318.56;;;23.10;100.00
15870;BME280;8034;51.442;-0.522;2022-08-05T18:09:55;102330.67;;;23.05;100.00
15870;BME280;8034;51.442;-0.522;2022-08-05T18:15:40;102336.97;;;22.67;100.00
15870;BME280;8034;51.442;-0.522;2022-08-05T18:21:25;102340.33;;;23.21;100.00
15870;BME280;8034;51.442;-0.522;2022-08-05T18:27:10;102349.14;;;22.40;100.00
15870;BME280;8034;51.442;-0.522;2022-08-05T18:32:55;102359.98;;;21.98;100.00
15870;BME280;8034;51.442;-0.522;2022-08-05T18:38:40;102361.23;;;21.61;100.00
15870;BME280;8034;51.442;-0.522;2022-08-05T18:44:26;102374.77;;;21.42;100.00
15870;BME280;8034;51.442;-0.522;2022-08-05T18:50:14;102381.12;;;21.37;100.00
15870;BME280;8034;51.442;-0.522;2022-08-05T18:56:16;102384.64;;;21.20;100.00
15870;BME280;8034;51.442;-0.522;2022-08-05T19:02:01;102387.84;;;21.27;100.00
15870;BME280;8034;51.442;-0.522;2022-08-05T19:07:48;102386.59;;;21.08;100.00
15870;BME280;8034;51.442;-0.522;2022-08-05T19:13:35;102392.69;;;21.91;100.00
15870;BME280;8034;51.442;-0.522;2022-08-05T19:19:22;102391.58;;;22.59;100.00
15870;BME280;8034;51.442;-0.522;2022-08-05T19:25:10;102410.89;;;22.09;100.00
15870;BME280;8034;51.442;-0.522;2022-08-05T19:30:56;102410.04;;;22.20;100.00
15870;BME280;8034;51.442;-0.522;2022-08-05T19:36:43;102429.89;;;20.54;100.00
15870;BME280;8034;51.442;-0.522;2022-08-05T19:42:28;102438.28;;;19.99;100.00
15870;BME280;8034;51.442;-0.522;2022-08-05T19:48:18;102449.64;;;19.81;100.00
15870;BME280;8034;51.442;-0.522;2022-08-05T19:54:04;102456.55;;;19.88;100.00
15870;BME280;8034;51.442;-0.522;2022-08-05T19:59:51;102471.31;;;19.67;100.00
15870;BME280;8034;51.442;-0.522;2022-08-05T20:05:37;102476.02;;;19.55;100.00
15870;BME280;8034;51.442;-0.522;2022-08-05T20:11:23;102499.88;;;19.41;100.00
15870;BME280;8034;51.442;-0.522;2022-08-05T20:17:09;102495.08;;;19.42;100.00
15870;BME280;8034;51.442;-0.522;2022-08-05T20:22:59;102510.94;;;19.35;100.00
15870;BME280;8034;51.442;-0.522;2022-08-05T20:28:47;102518.05;;;19.30;100.00
15870;BME280;8034;51.442;-0.522;2022-08-05T20:34:34;102523.52;;;19.24;100.00
15870;BME280;8034;51.442;-0.522;2022-08-05T20:40:20;102532.22;;;19.04;100.00
15870;BME280;8034;51.442;-0.522;2022-08-05T20:46:07;102540.98;;;18.81;100.00
15870;BME280;8034;51.442;-0.522;2022-08-05T20:51:55;102554.55;;;18.74;100.00
15870;BME280;8034;51.442;-0.522;2022-08-05T20:57:42;102557.27;;;18.58;100.00
15870;BME280;8034;51.442;-0.522;2022-08-05T21:03:29;102559.51;;;18.30;100.00
15870;BME280;8034;51.442;-0.522;2022-08-05T21:09:17;102566.09;;;18.46;100.00
15870;BME280;8034;51.442;-0.522;2022-08-05T21:15:03;102572.05;;;18.42;100.00
15870;BME280;8034;51.442;-0.522;2022-08-05T21:20:48;102582.86;;;18.28;100.00
15870;BME280;8034;51.442;-0.522;2022-08-05T21:26:33;102600.09;;;18.21;100.00
15870;BME280;8034;51.442;-0.522;2022-08-05T21:32:19;102604.07;;;18.17;100.00
15870;BME280;8034;51.442;-0.522;2022-08-05T21:38:04;102604.20;;;18.00;100.00
15870;BME280;8034;51.442;-0.522;2022-08-05T21:43:49;102609.80;;;18.02;100.00
15870;BME280;8034;51.442;-0.522;2022-08-05T21:49:37;102614.70;;;17.84;100.00
15870;BME280;8034;51.442;-0.522;2022-08-05T21:55:22;102632.47;;;17.80;100.00
15870;BME280;8034;51.442;-0.522;2022-08-05T22:01:07;102635.19;;;18.29;100.00
15870;BME280;8034;51.442;-0.522;2022-08-05T22:06:52;102640.67;;;17.71;100.00
15870;BME280;8034;51.442;-0.522;2022-08-05T22:12:40;102644.67;;;17.52;100.00
15870;BME280;8034;51.442;-0.522;2022-08-05T22:18:27;102644.94;;;17.61;100.00
15870;BME280;8034;51.442;-0.522;2022-08-05T22:24:12;102655.66;;;17.44;100.00
15870;BME280;8034;51.442;-0.522;2022-08-05T22:30:15;102655.39;;;17.45;100.00
15870;BME280;8034;51.442;-0.522;2022-08-05T22:36:00;102658.51;;;17.34;100.00
15870;BME280;8034;51.442;-0.522;2022-08-05T22:41:44;102660.84;;;17.09;100.00
15870;BME280;8034;51.442;-0.522;2022-08-05T22:47:30;102669.55;;;17.10;100.00
15870;BME280;8034;51.442;-0.522;2022-08-05T22:53:15;102678.84;;;16.95;100.00
15870;BME280;8034;51.442;-0.522;2022-08-05T22:59:00;102688.69;;;16.82;100.00
15870;BME280;8034;51.442;-0.522;2022-08-05T23:04:45;102691.17;;;17.09;100.00
15870;BME280;8034;51.442;-0.522;2022-08-05T23:10:30;102706.95;;;16.80;100.00
15870;BME280;8034;51.442;-0.522;2022-08-05T23:16:15;102702.16;;;16.83;100.00
15870;BME280;8034;51.442;-0.522;2022-08-05T23:22:00;102706.29;;;17.26;100.00
15870;BME280;8034;51.442;-0.522;2022-08-05T23:27:46;102707.19;;;17.06;100.00
15870;BME280;8034;51.442;-0.522;2022-08-05T23:33:32;102718.97;;;17.03;100.00
15870;BME280;8034;51.442;-0.522;2022-08-05T23:39:17;102716.21;;;16.75;100.00
15870;BME280;8034;51.442;-0.522;2022-08-05T23:45:03;102720.66;;;16.99;100.00
15870;BME280;8034;51.442;-0.522;2022-08-05T23:50:51;102741.14;;;16.57;100.00
15870;BME280;8034;51.442;-0.522;2022-08-05T23:56:36;102738.63;;;16.55;100.00
